createdAt,value
2017-07-22T00:00:45.258Z,47.4
2017-07-22T00:01:47.389Z,47.3
2017-07-22T00:02:48.838Z,47.2
2017-07-22T00:03:50.973Z,47.5
2017-07-22T00:04:52.778Z,47.6
2017-07-22T00:05:54.911Z,47.6
2017-07-22T00:06:56.711Z,47.4
2017-07-22T00:07:58.181Z,47.4
2017-07-22T00:08:59.978Z,47.4
2017-07-22T00:10:01.447Z,47.7
2017-07-22T00:11:03.581Z,47.5
2017-07-22T00:12:05.380Z,47.6
2017-07-22T00:13:07.183Z,47.4
2017-07-22T00:14:08.634Z,47.6
2017-07-22T00:15:10.103Z,47.6
2017-07-22T00:16:12.232Z,47.6
2017-07-22T00:17:14.029Z,47.5
2017-07-22T00:18:15.497Z,47.5
2017-07-22T00:19:16.959Z,47.4
2017-07-22T00:20:19.120Z,47.6
2017-07-22T00:21:20.566Z,47.6
2017-07-22T00:22:22.700Z,47.4
2017-07-22T00:23:24.830Z,47.5
2017-07-22T00:24:26.963Z,47.7
2017-07-22T00:25:29.094Z,47.6
2017-07-22T00:26:30.876Z,47.8
2017-07-22T00:27:32.655Z,47.7
2017-07-22T00:28:34.783Z,47.4
2017-07-22T00:29:36.582Z,47.6
2017-07-22T00:30:38.377Z,47.5
2017-07-22T00:31:40.177Z,47.5
2017-07-22T00:32:41.646Z,47.6
2017-07-22T00:33:43.778Z,47.6
2017-07-22T00:34:45.588Z,47.5
2017-07-22T00:35:47.728Z,47.5
2017-07-22T00:36:49.861Z,47.7
2017-07-22T00:37:51.993Z,47.5
2017-07-22T00:38:53.796Z,47.7
2017-07-22T00:39:55.940Z,47.6
2017-07-22T00:40:58.074Z,47.6
2017-07-22T00:42:00.219Z,47.7
2017-07-22T00:43:02.347Z,47.6
2017-07-22T00:44:04.478Z,47.6
2017-07-22T00:45:06.624Z,47.7
2017-07-22T00:46:08.413Z,47.5
2017-07-22T00:47:10.545Z,47.6
2017-07-22T00:48:12.675Z,47.6
2017-07-22T00:49:14.475Z,47.2
2017-07-22T00:50:15.251Z,47.5
2017-07-22T00:51:16.719Z,47
2017-07-22T00:52:18.495Z,47.5
2017-07-22T00:53:20.629Z,47.5
2017-07-22T00:54:22.427Z,47.6
2017-07-22T00:55:24.561Z,47.6
2017-07-22T00:56:26.031Z,47.5
2017-07-22T00:57:28.186Z,47.6
2017-07-22T00:58:29.981Z,47.1
2017-07-22T00:59:32.112Z,47.5
2017-07-22T01:00:34.245Z,47.5
2017-07-22T01:01:36.057Z,47.9
2017-07-22T01:02:37.843Z,47.9
2017-07-22T01:03:39.973Z,47.7
2017-07-22T01:04:42.105Z,47.8
2017-07-22T01:05:44.237Z,47.7
2017-07-22T01:06:46.369Z,47.7
2017-07-22T01:07:48.149Z,47.7
2017-07-22T01:08:49.948Z,47.5
2017-07-22T01:09:51.413Z,47.8
2017-07-22T01:10:53.190Z,47.4
2017-07-22T01:11:54.994Z,47.7
2017-07-22T01:12:57.124Z,47.4
2017-07-22T01:13:59.256Z,47.5
2017-07-22T01:15:00.701Z,47.2
2017-07-22T01:16:02.507Z,47.6
2017-07-22T01:17:04.275Z,47.5
2017-07-22T01:18:06.407Z,47.6
2017-07-22T01:19:08.208Z,47.4
2017-07-22T01:20:09.672Z,47.7
2017-07-22T01:21:11.822Z,47.6
2017-07-22T01:22:13.955Z,47.8
2017-07-22T01:23:15.752Z,47.6
2017-07-22T01:24:17.530Z,47.4
2017-07-22T01:25:18.662Z,47.8
2017-07-22T01:26:20.464Z,47.5
2017-07-22T01:27:22.613Z,47.5
2017-07-22T01:28:24.390Z,47.7
2017-07-22T01:29:26.165Z,47.9
2017-07-22T01:30:27.616Z,47.8
2017-07-22T01:31:29.749Z,47.7
2017-07-22T01:32:31.881Z,47.5
2017-07-22T01:33:33.328Z,47.9
2017-07-22T01:34:35.131Z,47.6
2017-07-22T01:35:36.904Z,47.6
2017-07-22T01:36:39.053Z,47.3
2017-07-22T01:37:41.215Z,47.3
2017-07-22T01:38:43.348Z,47.8
2017-07-22T01:39:45.482Z,47.6
2017-07-22T01:40:47.282Z,47.6
2017-07-22T01:41:49.413Z,47.3
2017-07-22T01:42:51.544Z,47.1
2017-07-22T01:43:53.679Z,47.2
2017-07-22T01:44:55.482Z,47.8
2017-07-22T01:45:57.283Z,47.6
2017-07-22T01:46:58.734Z,47.7
2017-07-22T01:48:00.863Z,47.7
2017-07-22T01:49:02.668Z,47.8
2017-07-22T01:50:04.121Z,47.9
2017-07-22T01:51:05.590Z,47.8
2017-07-22T01:52:07.724Z,47.8
2017-07-22T01:53:09.895Z,47.4
2017-07-22T01:54:12.027Z,47.7
2017-07-22T01:55:14.160Z,47.6
2017-07-22T01:56:15.624Z,47.8
2017-07-22T01:57:17.753Z,47.9
2017-07-22T01:58:19.883Z,47.6
2017-07-22T01:59:22.015Z,47.8
2017-07-22T02:00:23.813Z,48
2017-07-22T02:01:25.942Z,47.7
2017-07-22T02:02:28.085Z,47.7
2017-07-22T02:03:30.210Z,48
2017-07-22T02:04:31.652Z,47.8
2017-07-22T02:05:33.456Z,47.9
2017-07-22T02:06:35.585Z,47.4
2017-07-22T02:07:37.716Z,47.4
2017-07-22T02:08:38.527Z,47.8
2017-07-22T02:09:40.659Z,47.7
2017-07-22T02:10:42.486Z,47.9
2017-07-22T02:11:44.285Z,47.9
2017-07-22T02:12:46.062Z,47.5
2017-07-22T02:13:47.511Z,47.9
2017-07-22T02:14:49.642Z,47.6
2017-07-22T02:15:51.444Z,47.8
2017-07-22T02:16:53.241Z,47.6
2017-07-22T02:17:55.015Z,48
2017-07-22T02:18:56.900Z,48
2017-07-22T02:19:59.029Z,48.1
2017-07-22T02:21:01.218Z,48.1
2017-07-22T02:22:03.349Z,47.8
2017-07-22T02:23:05.479Z,47.8
2017-07-22T02:24:07.257Z,47.7
2017-07-22T02:25:08.730Z,48.1
2017-07-22T02:26:10.862Z,47.7
2017-07-22T02:27:12.991Z,47.7
2017-07-22T02:28:14.854Z,47.7
2017-07-22T02:29:16.972Z,47.8
2017-07-22T02:30:18.091Z,47.8
2017-07-22T02:31:19.530Z,48
2017-07-22T02:32:20.660Z,47.8
2017-07-22T02:33:22.814Z,47.9
2017-07-22T02:34:24.292Z,47.8
2017-07-22T02:35:26.424Z,48
2017-07-22T02:36:28.231Z,48.1
2017-07-22T02:37:30.362Z,47.9
2017-07-22T02:38:32.163Z,47.8
2017-07-22T02:39:34.296Z,48.1
2017-07-22T02:40:36.429Z,48
2017-07-22T02:41:38.565Z,47.9
2017-07-22T02:42:40.365Z,47.7
2017-07-22T02:43:42.154Z,48.1
2017-07-22T02:44:43.955Z,47.7
2017-07-22T02:45:45.396Z,48.1
2017-07-22T02:46:46.529Z,47.7
2017-07-22T02:47:48.330Z,48
2017-07-22T02:48:50.463Z,47.7
2017-07-22T02:49:52.267Z,48
2017-07-22T02:50:54.396Z,48.1
2017-07-22T02:51:56.525Z,47.8
2017-07-22T02:52:58.683Z,48
2017-07-22T02:54:00.813Z,47.9
2017-07-22T02:55:02.614Z,48.1
2017-07-22T02:56:04.414Z,47.8
2017-07-22T02:57:06.608Z,48.2
2017-07-22T02:58:08.391Z,48.1
2017-07-22T02:59:10.191Z,47.9
2017-07-22T03:00:11.993Z,47.8
2017-07-22T03:01:13.792Z,47.8
2017-07-22T03:02:15.923Z,47.9
2017-07-22T03:03:17.368Z,47.9
2017-07-22T03:04:19.168Z,48.1
2017-07-22T03:05:21.298Z,47.8
2017-07-22T03:06:23.428Z,47.9
2017-07-22T03:07:25.251Z,47.8
2017-07-22T03:08:27.055Z,47.9
2017-07-22T03:09:29.202Z,48
2017-07-22T03:10:30.986Z,47.8
2017-07-22T03:11:33.117Z,47.9
2017-07-22T03:12:34.914Z,48
2017-07-22T03:13:36.716Z,47.9
2017-07-22T03:14:38.517Z,48
2017-07-22T03:15:40.318Z,48
2017-07-22T03:16:42.450Z,48
2017-07-22T03:17:44.277Z,47.7
2017-07-22T03:18:45.741Z,47.8
2017-07-22T03:19:47.874Z,48.5
2017-07-22T03:20:49.693Z,48
2017-07-22T03:21:51.829Z,48
2017-07-22T03:22:52.941Z,47.8
2017-07-22T03:23:54.388Z,47.9
2017-07-22T03:24:56.188Z,48
2017-07-22T03:25:57.989Z,48.5
2017-07-22T03:26:59.789Z,47.9
2017-07-22T03:28:01.588Z,48.2
2017-07-22T03:29:03.720Z,47.8
2017-07-22T03:30:05.851Z,48.1
2017-07-22T03:31:07.298Z,47.7
2017-07-22T03:32:09.104Z,48.1
2017-07-22T03:33:10.878Z,47.8
2017-07-22T03:34:13.009Z,47.8
2017-07-22T03:35:14.812Z,47.9
2017-07-22T03:36:16.285Z,47.6
2017-07-22T03:37:18.412Z,48
2017-07-22T03:38:20.544Z,48
2017-07-22T03:39:22.677Z,48.4
2017-07-22T03:40:24.478Z,47.7
2017-07-22T03:41:25.946Z,47.7
2017-07-22T03:42:27.746Z,47.9
2017-07-22T03:43:28.863Z,47.9
2017-07-22T03:44:30.666Z,48
2017-07-22T03:45:32.465Z,48
2017-07-22T03:46:34.267Z,47.9
2017-07-22T03:47:36.398Z,47.6
2017-07-22T03:48:38.256Z,48.2
2017-07-22T03:49:40.060Z,48.3
2017-07-22T03:50:41.866Z,48.1
2017-07-22T03:51:43.670Z,48
2017-07-22T03:52:45.135Z,48
2017-07-22T03:53:46.706Z,48.1
2017-07-22T03:54:47.828Z,48.1
2017-07-22T03:55:49.628Z,48.1
2017-07-22T03:56:51.428Z,48
2017-07-22T03:57:53.226Z,48.1
2017-07-22T03:58:55.359Z,48.1
2017-07-22T03:59:57.137Z,48.1
2017-07-22T04:00:58.596Z,48
2017-07-22T04:02:00.728Z,48.2
2017-07-22T04:03:01.841Z,48
2017-07-22T04:04:03.981Z,48.2
2017-07-22T04:05:05.781Z,48
2017-07-22T04:06:07.912Z,48.2
2017-07-22T04:07:10.047Z,48.4
2017-07-22T04:08:12.186Z,48.1
2017-07-22T04:09:13.989Z,48
2017-07-22T04:10:15.789Z,48.2
2017-07-22T04:11:17.915Z,48.2
2017-07-22T04:12:20.045Z,48
2017-07-22T04:13:22.187Z,48
2017-07-22T04:14:23.966Z,48
2017-07-22T04:15:25.779Z,48.2
2017-07-22T04:16:27.217Z,48.3
2017-07-22T04:17:29.349Z,48.1
2017-07-22T04:18:31.151Z,48.8
2017-07-22T04:19:32.952Z,48.3
2017-07-22T04:20:35.081Z,48
2017-07-22T04:21:36.858Z,48
2017-07-22T04:22:38.993Z,48
2017-07-22T04:23:40.494Z,48.1
2017-07-22T04:24:41.941Z,48.4
2017-07-22T04:25:44.072Z,48
2017-07-22T04:26:45.874Z,48.4
2017-07-22T04:27:47.655Z,48
2017-07-22T04:28:49.461Z,48
2017-07-22T04:29:51.259Z,48
2017-07-22T04:30:52.729Z,48.2
2017-07-22T04:31:54.174Z,48.1
2017-07-22T04:32:55.641Z,47.9
2017-07-22T04:33:57.422Z,48.1
2017-07-22T04:34:59.551Z,48.2
2017-07-22T04:36:01.691Z,48.1
2017-07-22T04:37:03.818Z,48.2
2017-07-22T04:38:05.973Z,48.3
2017-07-22T04:39:08.106Z,48.5
2017-07-22T04:40:09.913Z,48.2
2017-07-22T04:41:11.700Z,48.4
2017-07-22T04:42:13.832Z,48.3
2017-07-22T04:43:15.965Z,48.1
2017-07-22T04:44:17.434Z,48.3
2017-07-22T04:45:19.241Z,48.2
2017-07-22T04:46:21.375Z,48.2
2017-07-22T04:47:23.178Z,48.1
2017-07-22T04:48:24.291Z,48.1
2017-07-22T04:49:25.764Z,48.4
2017-07-22T04:50:27.541Z,48.1
2017-07-22T04:51:29.675Z,48.1
2017-07-22T04:52:31.141Z,48.1
2017-07-22T04:53:32.616Z,48.5
2017-07-22T04:54:34.425Z,48.1
2017-07-22T04:55:35.536Z,48.5
2017-07-22T04:56:36.990Z,48.2
2017-07-22T04:57:39.133Z,48.1
2017-07-22T04:58:40.932Z,48.4
2017-07-22T04:59:42.052Z,48.6
2017-07-22T05:00:43.853Z,48.1
2017-07-22T05:01:45.984Z,48.2
2017-07-22T05:02:47.787Z,48.3
2017-07-22T05:03:49.565Z,48.4
2017-07-22T05:04:51.011Z,48.5
2017-07-22T05:05:52.811Z,48
2017-07-22T05:06:54.617Z,48.4
2017-07-22T05:07:56.752Z,48.1
2017-07-22T05:08:58.559Z,48.2
2017-07-22T05:10:00.691Z,48.1
2017-07-22T05:11:02.823Z,48.4
2017-07-22T05:12:04.294Z,48.6
2017-07-22T05:13:06.424Z,48.4
2017-07-22T05:14:08.572Z,48.6
2017-07-22T05:15:10.696Z,48.3
2017-07-22T05:16:12.163Z,48.3
2017-07-22T05:17:13.612Z,48.4
2017-07-22T05:18:15.408Z,48.4
2017-07-22T05:19:17.203Z,48.2
2017-07-22T05:20:19.334Z,48.1
2017-07-22T05:21:21.133Z,48.3
2017-07-22T05:22:22.912Z,48.5
2017-07-22T05:23:24.357Z,48.4
2017-07-22T05:24:26.160Z,48
2017-07-22T05:25:28.293Z,48.4
2017-07-22T05:26:30.094Z,48.1
2017-07-22T05:27:32.234Z,48.2
2017-07-22T05:28:34.365Z,48.1
2017-07-22T05:29:36.161Z,48.3
2017-07-22T05:30:37.323Z,48.1
2017-07-22T05:31:39.124Z,48.7
2017-07-22T05:32:40.570Z,48.2
2017-07-22T05:33:42.700Z,48.1
2017-07-22T05:34:44.173Z,48.1
2017-07-22T05:35:45.976Z,48.5
2017-07-22T05:36:48.110Z,48.2
2017-07-22T05:37:49.913Z,48.1
2017-07-22T05:38:51.716Z,48.2
2017-07-22T05:39:53.846Z,48.1
2017-07-22T05:40:55.314Z,48.3
2017-07-22T05:41:57.093Z,48.4
2017-07-22T05:42:58.893Z,48.4
2017-07-22T05:44:00.011Z,48.6
2017-07-22T05:45:01.811Z,48.1
2017-07-22T05:46:03.282Z,48.1
2017-07-22T05:47:05.413Z,48.5
2017-07-22T05:48:07.218Z,48.5
2017-07-22T05:49:08.688Z,48.4
2017-07-22T05:50:10.493Z,48.1
2017-07-22T05:51:11.936Z,48.6
2017-07-22T05:52:13.736Z,48.1
2017-07-22T05:53:15.192Z,48.1
2017-07-22T05:54:17.326Z,48.3
2017-07-22T05:55:18.773Z,48.1
2017-07-22T05:56:20.555Z,47.9
2017-07-22T05:57:22.349Z,48.3
2017-07-22T05:58:23.819Z,48.2
2017-07-22T05:59:25.601Z,48
2017-07-22T06:00:27.374Z,48.4
2017-07-22T06:01:28.826Z,48
2017-07-22T06:02:30.956Z,47.9
2017-07-22T06:03:33.089Z,48
2017-07-22T06:04:35.224Z,47.9
2017-07-22T06:05:37.365Z,48.2
2017-07-22T06:06:38.832Z,48
2017-07-22T06:07:40.302Z,48.4
2017-07-22T06:08:42.440Z,47.9
2017-07-22T06:09:44.576Z,48
2017-07-22T06:10:46.373Z,47.8
2017-07-22T06:11:47.842Z,47.9
2017-07-22T06:12:49.647Z,47.9
2017-07-22T06:13:51.446Z,47.9
2017-07-22T06:14:53.249Z,47.3
2017-07-22T06:15:55.051Z,47.7
2017-07-22T06:16:56.499Z,47.6
2017-07-22T06:17:58.301Z,47.4
2017-07-22T06:18:59.419Z,47.6
2017-07-22T06:20:01.555Z,47.7
2017-07-22T06:21:03.004Z,47.2
2017-07-22T06:22:04.857Z,47.6
2017-07-22T06:23:06.990Z,47.8
2017-07-22T06:24:08.789Z,47.4
2017-07-22T06:25:10.592Z,47.2
2017-07-22T06:26:12.039Z,47.5
2017-07-22T06:27:14.174Z,47.6
2017-07-22T06:28:16.302Z,47.6
2017-07-22T06:29:17.751Z,47.6
2017-07-22T06:30:19.884Z,47.4
2017-07-22T06:31:21.668Z,47.5
2017-07-22T06:32:22.856Z,47.3
2017-07-22T06:33:24.660Z,47.4
2017-07-22T06:34:26.466Z,47.6
2017-07-22T06:35:28.243Z,47.3
2017-07-22T06:36:30.038Z,47.5
2017-07-22T06:37:31.510Z,47.7
2017-07-22T06:38:33.645Z,47.5
2017-07-22T06:39:35.424Z,47.5
2017-07-22T06:40:37.228Z,47.3
2017-07-22T06:41:39.364Z,47.7
2017-07-22T06:42:40.822Z,47.8
2017-07-22T06:43:42.628Z,47.6
2017-07-22T06:44:44.760Z,47.5
2017-07-22T06:45:46.893Z,47.6
2017-07-22T06:46:49.032Z,47.6
2017-07-22T06:47:50.830Z,47.5
2017-07-22T06:48:52.963Z,47.6
2017-07-22T06:49:54.077Z,47.4
2017-07-22T06:50:55.864Z,47.6
2017-07-22T06:51:57.994Z,47.5
2017-07-22T06:52:59.796Z,47.6
2017-07-22T06:54:01.598Z,47.6
2017-07-22T06:55:03.737Z,47.5
2017-07-22T06:56:05.536Z,47.4
2017-07-22T06:57:06.990Z,47.4
2017-07-22T06:58:08.785Z,47.4
2017-07-22T06:59:10.919Z,47.2
2017-07-22T07:00:13.054Z,47.5
2017-07-22T07:01:15.186Z,47.5
2017-07-22T07:02:17.323Z,47.3
2017-07-22T07:03:19.125Z,47.4
2017-07-22T07:04:21.262Z,47.3
2017-07-22T07:05:23.398Z,47.5
2017-07-22T07:06:24.854Z,47.4
2017-07-22T07:07:26.654Z,47.4
2017-07-22T07:08:28.124Z,47.1
2017-07-22T07:09:29.596Z,47.3
2017-07-22T07:10:31.734Z,47.2
2017-07-22T07:11:32.857Z,47.2
2017-07-22T07:12:34.633Z,47.4
2017-07-22T07:13:36.094Z,47.3
2017-07-22T07:14:37.566Z,47.2
2017-07-22T07:15:39.348Z,47.4
2017-07-22T07:16:41.481Z,47.3
2017-07-22T07:17:43.615Z,47.2
2017-07-22T07:18:45.520Z,47.1
2017-07-22T07:19:47.321Z,47.3
2017-07-22T07:20:49.454Z,47.2
2017-07-22T07:21:51.256Z,47.2
2017-07-22T07:22:53.039Z,47.3
2017-07-22T07:23:53.825Z,47.3
2017-07-22T07:24:55.274Z,47.2
2017-07-22T07:25:57.075Z,47.2
2017-07-22T07:26:58.852Z,47.2
2017-07-22T07:28:00.657Z,47.2
2017-07-22T07:29:02.792Z,47.1
2017-07-22T07:30:04.592Z,47.2
2017-07-22T07:31:06.725Z,47.3
2017-07-22T07:32:08.860Z,47.5
2017-07-22T07:33:10.995Z,47.1
2017-07-22T07:34:12.441Z,47.2
2017-07-22T07:35:14.242Z,47.3
2017-07-22T07:36:15.693Z,47.3
2017-07-22T07:37:17.494Z,47.2
2017-07-22T07:38:19.277Z,47.5
2017-07-22T07:39:21.408Z,47.2
2017-07-22T07:40:23.543Z,47.1
2017-07-22T07:41:25.327Z,47.4
2017-07-22T07:42:27.124Z,47.4
2017-07-22T07:43:29.262Z,47.4
2017-07-22T07:44:31.068Z,47.5
2017-07-22T07:45:32.537Z,47.2
2017-07-22T07:46:34.340Z,47.4
2017-07-22T07:47:36.477Z,47.5
2017-07-22T07:48:38.274Z,47.3
2017-07-22T07:49:40.414Z,47.1
2017-07-22T07:50:42.217Z,47.5
2017-07-22T07:51:44.350Z,47.3
2017-07-22T07:52:46.138Z,47.2
2017-07-22T07:53:47.589Z,47.5
2017-07-22T07:54:49.388Z,47.2
2017-07-22T07:55:51.192Z,47.4
2017-07-22T07:56:53.327Z,47.2
2017-07-22T07:57:55.132Z,47.3
2017-07-22T07:58:56.930Z,47.3
2017-07-22T07:59:59.065Z,47.3
2017-07-22T08:01:00.865Z,47.2
2017-07-22T08:02:02.674Z,47.4
2017-07-22T08:03:04.470Z,47.4
2017-07-22T08:04:05.584Z,47
2017-07-22T08:05:07.035Z,47.1
2017-07-22T08:06:07.827Z,47
2017-07-22T08:07:09.964Z,47
2017-07-22T08:08:12.096Z,47.2
2017-07-22T08:09:14.234Z,47.3
2017-07-22T08:10:16.031Z,47.2
2017-07-22T08:11:17.837Z,47.1
2017-07-22T08:12:19.614Z,47
2017-07-22T08:13:21.750Z,46.9
2017-07-22T08:14:23.554Z,47.1
2017-07-22T08:15:25.003Z,47.2
2017-07-22T08:16:27.138Z,47
2017-07-22T08:17:28.613Z,47.2
2017-07-22T08:18:30.414Z,47
2017-07-22T08:19:32.548Z,47.2
2017-07-22T08:20:33.663Z,47.3
2017-07-22T08:21:35.466Z,47.1
2017-07-22T08:22:37.243Z,46.8
2017-07-22T08:23:39.047Z,47.3
2017-07-22T08:24:40.186Z,47.3
2017-07-22T08:25:41.985Z,47.2
2017-07-22T08:26:44.120Z,47.3
2017-07-22T08:27:45.920Z,47.2
2017-07-22T08:28:47.701Z,47
2017-07-22T08:29:49.834Z,47.3
2017-07-22T08:30:51.278Z,47.1
2017-07-22T08:31:53.064Z,47.2
2017-07-22T08:32:54.866Z,47
2017-07-22T08:33:56.668Z,46.9
2017-07-22T08:34:58.470Z,47.2
2017-07-22T08:36:00.600Z,47
2017-07-22T08:37:02.732Z,47.3
2017-07-22T08:38:04.513Z,47.2
2017-07-22T08:39:06.311Z,47.1
2017-07-22T08:40:08.450Z,47.3
2017-07-22T08:41:10.227Z,47
2017-07-22T08:42:11.670Z,47.4
2017-07-22T08:43:12.814Z,47
2017-07-22T08:44:14.614Z,47
2017-07-22T08:45:16.394Z,46.9
2017-07-22T08:46:18.177Z,47
2017-07-22T08:47:20.308Z,47.3
2017-07-22T08:48:22.447Z,47
2017-07-22T08:49:24.579Z,47.3
2017-07-22T08:50:26.359Z,46.9
2017-07-22T08:51:28.163Z,47
2017-07-22T08:52:29.943Z,46.9
2017-07-22T08:53:31.414Z,46.9
2017-07-22T08:54:32.867Z,47.1
2017-07-22T08:55:34.648Z,47.1
2017-07-22T08:56:36.779Z,47.4
2017-07-22T08:57:38.578Z,47.4
2017-07-22T08:58:40.378Z,47.4
2017-07-22T08:59:42.166Z,47.1
2017-07-22T09:00:43.641Z,47.2
2017-07-22T09:01:45.777Z,47.2
2017-07-22T09:02:47.914Z,47.2
2017-07-22T09:03:49.713Z,47.3
2017-07-22T09:04:51.853Z,47.2
2017-07-22T09:05:53.988Z,47.4
2017-07-22T09:06:55.772Z,47.1
2017-07-22T09:07:57.219Z,47.1
2017-07-22T09:08:58.336Z,47.3
2017-07-22T09:10:00.473Z,47.2
2017-07-22T09:11:02.274Z,47.4
2017-07-22T09:12:04.077Z,47.3
2017-07-22T09:13:06.211Z,47.3
2017-07-22T09:14:08.012Z,47.4
2017-07-22T09:15:09.819Z,47.1
2017-07-22T09:16:11.601Z,47.1
2017-07-22T09:17:13.405Z,47.1
2017-07-22T09:18:15.541Z,47.1
2017-07-22T09:19:17.678Z,47.2
2017-07-22T09:20:18.794Z,47.4
2017-07-22T09:21:20.596Z,47.2
2017-07-22T09:22:22.781Z,46.8
2017-07-22T09:23:24.565Z,47.1
2017-07-22T09:24:26.703Z,47.1
2017-07-22T09:25:28.837Z,47.1
2017-07-22T09:26:30.282Z,46.8
2017-07-22T09:27:32.081Z,47.2
2017-07-22T09:28:34.220Z,46.8
2017-07-22T09:29:36.020Z,47.1
2017-07-22T09:30:37.133Z,47
2017-07-22T09:31:39.268Z,47.1
2017-07-22T09:32:41.067Z,46.9
2017-07-22T09:33:42.870Z,46.9
2017-07-22T09:34:44.653Z,46.9
2017-07-22T09:35:46.785Z,46.9
2017-07-22T09:36:48.636Z,46.8
2017-07-22T09:37:50.440Z,47.2
2017-07-22T09:38:52.576Z,46.9
2017-07-22T09:39:54.710Z,46.9
2017-07-22T09:40:56.511Z,47.1
2017-07-22T09:41:57.958Z,47
2017-07-22T09:43:00.092Z,46.9
2017-07-22T09:44:02.230Z,46.7
2017-07-22T09:45:03.371Z,47
2017-07-22T09:46:05.157Z,47.1
2017-07-22T09:47:07.291Z,46.9
2017-07-22T09:48:09.432Z,47.2
2017-07-22T09:49:10.898Z,46.9
2017-07-22T09:50:13.035Z,46.9
2017-07-22T09:51:14.842Z,47.1
2017-07-22T09:52:16.975Z,47.1
2017-07-22T09:53:18.756Z,47.1
2017-07-22T09:54:20.894Z,47
2017-07-22T09:55:22.693Z,47.1
2017-07-22T09:56:24.849Z,47
2017-07-22T09:57:26.645Z,46.9
2017-07-22T09:58:28.449Z,47
2017-07-22T09:59:30.253Z,47
2017-07-22T10:00:32.394Z,47
2017-07-22T10:01:33.843Z,47.1
2017-07-22T10:02:35.974Z,47
2017-07-22T10:03:38.116Z,46.9
2017-07-22T10:04:39.564Z,47
2017-07-22T10:05:41.348Z,47
2017-07-22T10:06:43.157Z,47.4
2017-07-22T10:07:44.961Z,46.9
2017-07-22T10:08:46.436Z,47.1
2017-07-22T10:09:48.571Z,46.9
2017-07-22T10:10:50.704Z,47.1
2017-07-22T10:11:52.173Z,47
2017-07-22T10:12:53.972Z,47
2017-07-22T10:13:55.426Z,46.9
2017-07-22T10:14:57.209Z,46.9
2017-07-22T10:15:58.990Z,46.9
2017-07-22T10:17:00.438Z,46.9
2017-07-22T10:18:02.575Z,47
2017-07-22T10:19:03.697Z,46.9
2017-07-22T10:20:05.832Z,47
2017-07-22T10:21:07.281Z,47.2
2017-07-22T10:22:09.084Z,46.9
2017-07-22T10:23:10.935Z,47
2017-07-22T10:24:13.069Z,46.9
2017-07-22T10:25:14.875Z,47
2017-07-22T10:26:17.012Z,47
2017-07-22T10:27:19.145Z,47.2
2017-07-22T10:28:20.952Z,47.3
2017-07-22T10:29:22.755Z,47.2
2017-07-22T10:30:24.232Z,47.2
2017-07-22T10:31:26.367Z,47.2
2017-07-22T10:32:28.169Z,47.3
2017-07-22T10:33:29.970Z,47.1
2017-07-22T10:34:31.413Z,47
2017-07-22T10:35:33.195Z,47.1
2017-07-22T10:36:34.638Z,47.1
2017-07-22T10:37:36.420Z,47
2017-07-22T10:38:38.221Z,47.1
2017-07-22T10:39:40.020Z,47.2
2017-07-22T10:40:42.154Z,47.2
2017-07-22T10:41:44.286Z,47.2
2017-07-22T10:42:45.755Z,47.3
2017-07-22T10:43:47.554Z,47.2
2017-07-22T10:44:49.691Z,47.3
2017-07-22T10:45:51.468Z,47.3
2017-07-22T10:46:53.598Z,47.2
2017-07-22T10:47:55.398Z,47.1
2017-07-22T10:48:57.531Z,47.1
2017-07-22T10:49:59.675Z,47.4
2017-07-22T10:51:01.806Z,46.9
2017-07-22T10:52:03.607Z,47.4
2017-07-22T10:53:05.414Z,47.3
2017-07-22T10:54:07.548Z,47.1
2017-07-22T10:55:08.669Z,47.3
2017-07-22T10:56:10.447Z,47.3
2017-07-22T10:57:12.229Z,47.3
2017-07-22T10:58:14.362Z,47.3
2017-07-22T10:59:16.498Z,47.3
2017-07-22T11:00:17.966Z,47.3
2017-07-22T11:01:19.081Z,47
2017-07-22T11:02:20.893Z,47.1
2017-07-22T11:03:23.025Z,46.9
2017-07-22T11:04:24.500Z,46.9
2017-07-22T11:05:26.289Z,46.9
2017-07-22T11:06:28.424Z,47.4
2017-07-22T11:07:30.223Z,47.3
2017-07-22T11:08:31.688Z,47.4
2017-07-22T11:09:33.491Z,47.3
2017-07-22T11:10:35.291Z,47.2
2017-07-22T11:11:37.425Z,47.3
2017-07-22T11:12:39.558Z,47.3
2017-07-22T11:13:41.697Z,47.2
2017-07-22T11:14:43.475Z,47.3
2017-07-22T11:15:45.609Z,47.2
2017-07-22T11:16:47.413Z,47.2
2017-07-22T11:17:49.548Z,47.2
2017-07-22T11:18:51.328Z,47.3
2017-07-22T11:19:52.778Z,47.1
2017-07-22T11:20:54.916Z,47.1
2017-07-22T11:21:56.693Z,47.3
2017-07-22T11:22:58.832Z,47.3
2017-07-22T11:24:00.634Z,47
2017-07-22T11:25:02.431Z,47.4
2017-07-22T11:26:03.546Z,47.1
2017-07-22T11:27:05.681Z,47
2017-07-22T11:28:07.814Z,47.2
2017-07-22T11:29:09.618Z,47.1
2017-07-22T11:30:11.067Z,47.1
2017-07-22T11:31:12.536Z,47
2017-07-22T11:32:14.673Z,47
2017-07-22T11:33:16.148Z,47
2017-07-22T11:34:17.952Z,46.9
2017-07-22T11:35:20.083Z,47.1
2017-07-22T11:36:22.220Z,47.1
2017-07-22T11:37:23.690Z,46.9
2017-07-22T11:38:24.829Z,46.9
2017-07-22T11:39:26.608Z,47.1
2017-07-22T11:40:28.386Z,47.1
2017-07-22T11:41:30.188Z,47
2017-07-22T11:42:31.991Z,47
2017-07-22T11:43:34.126Z,46.9
2017-07-22T11:44:36.259Z,47
2017-07-22T11:45:38.059Z,46.9
2017-07-22T11:46:40.194Z,46.9
2017-07-22T11:47:42.328Z,46.8
2017-07-22T11:48:43.798Z,46.8
2017-07-22T11:49:45.603Z,46.9
2017-07-22T11:50:47.407Z,47.1
2017-07-22T11:51:48.878Z,46.9
2017-07-22T11:52:51.013Z,46.9
2017-07-22T11:53:52.458Z,46.9
2017-07-22T11:54:54.264Z,46.9
2017-07-22T11:55:56.043Z,46.9
2017-07-22T11:56:57.489Z,47
2017-07-22T11:57:59.628Z,47.1
2017-07-22T11:59:01.077Z,47.1
2017-07-22T12:00:03.210Z,47
2017-07-22T12:01:04.990Z,47
2017-07-22T12:02:06.464Z,47
2017-07-22T12:03:08.243Z,47.1
2017-07-22T12:04:09.690Z,46.9
2017-07-22T12:05:11.491Z,46.9
2017-07-22T12:06:12.986Z,47
2017-07-22T12:07:14.792Z,47.1
2017-07-22T12:08:16.592Z,47.3
2017-07-22T12:09:18.393Z,47.1
2017-07-22T12:10:20.524Z,47
2017-07-22T12:11:21.973Z,47.3
2017-07-22T12:12:23.790Z,47.1
2017-07-22T12:13:25.589Z,47.2
2017-07-22T12:14:27.039Z,46.9
2017-07-22T12:15:28.821Z,46.9
2017-07-22T12:16:31.005Z,47.1
2017-07-22T12:17:33.139Z,47.2
2017-07-22T12:18:35.274Z,47.2
2017-07-22T12:19:37.077Z,47.4
2017-07-22T12:20:39.210Z,47.1
2017-07-22T12:21:40.658Z,47
2017-07-22T12:22:42.106Z,47.5
2017-07-22T12:23:43.908Z,47.2
2017-07-22T12:24:45.702Z,47.2
2017-07-22T12:25:47.155Z,47.4
2017-07-22T12:26:48.961Z,47.2
2017-07-22T12:27:51.091Z,47.3
2017-07-22T12:28:53.228Z,47.1
2017-07-22T12:29:55.008Z,47.2
2017-07-22T12:30:57.144Z,47.2
2017-07-22T12:31:58.946Z,47.3
2017-07-22T12:33:00.747Z,47.3
2017-07-22T12:34:02.878Z,47.1
2017-07-22T12:35:05.026Z,47.5
2017-07-22T12:36:06.827Z,47.4
2017-07-22T12:37:08.963Z,47.4
2017-07-22T12:38:11.097Z,47.2
2017-07-22T12:39:12.895Z,47.3
2017-07-22T12:40:14.341Z,47.2
2017-07-22T12:41:16.475Z,47.4
2017-07-22T12:42:18.611Z,47
2017-07-22T12:43:20.742Z,47.1
2017-07-22T12:44:22.882Z,47
2017-07-22T12:45:24.686Z,47.2
2017-07-22T12:46:26.821Z,47
2017-07-22T12:47:28.955Z,46.9
2017-07-22T12:48:31.088Z,47.1
2017-07-22T12:49:32.557Z,47
2017-07-22T12:50:34.020Z,46.9
2017-07-22T12:51:36.153Z,46.9
2017-07-22T12:52:37.958Z,46.9
2017-07-22T12:53:40.091Z,47.1
2017-07-22T12:54:41.901Z,46.9
2017-07-22T12:55:44.034Z,46.8
2017-07-22T12:56:46.169Z,46.9
2017-07-22T12:57:47.969Z,46.9
2017-07-22T12:58:49.751Z,47.1
2017-07-22T12:59:51.554Z,47.4
2017-07-22T13:00:53.692Z,47.1
2017-07-22T13:01:55.500Z,47.1
2017-07-22T13:02:57.298Z,47
2017-07-22T13:03:59.430Z,47.3
2017-07-22T13:05:01.233Z,47.3
2017-07-22T13:06:02.678Z,47.1
2017-07-22T13:07:04.815Z,47.4
2017-07-22T13:08:06.615Z,47
2017-07-22T13:09:08.754Z,46.9
2017-07-22T13:10:10.529Z,47.2
2017-07-22T13:11:12.309Z,47.3
2017-07-22T13:12:14.111Z,47.3
2017-07-22T13:13:16.240Z,47.4
2017-07-22T13:14:18.376Z,47.5
2017-07-22T13:15:20.177Z,47.4
2017-07-22T13:16:21.984Z,47.4
2017-07-22T13:17:23.841Z,47.2
2017-07-22T13:18:24.957Z,46.9
2017-07-22T13:19:27.096Z,47.1
2017-07-22T13:20:28.211Z,47.3
2017-07-22T13:21:30.012Z,47.3
2017-07-22T13:22:32.149Z,47.1
2017-07-22T13:23:33.953Z,47.2
2017-07-22T13:24:35.748Z,46.9
2017-07-22T13:25:37.533Z,46.8
2017-07-22T13:26:39.002Z,46.9
2017-07-22T13:27:40.474Z,47.1
2017-07-22T13:28:42.279Z,47
2017-07-22T13:29:44.415Z,46.9
2017-07-22T13:30:45.884Z,46.9
2017-07-22T13:31:47.688Z,47.1
2017-07-22T13:32:49.817Z,46.9
2017-07-22T13:33:51.623Z,47.1
2017-07-22T13:34:53.758Z,47.1
2017-07-22T13:35:55.891Z,47.3
2017-07-22T13:36:57.696Z,47
2017-07-22T13:37:59.263Z,46.9
2017-07-22T13:39:00.731Z,47.2
2017-07-22T13:40:02.530Z,47.1
2017-07-22T13:41:04.337Z,47
2017-07-22T13:42:06.139Z,46.9
2017-07-22T13:43:07.914Z,47.2
2017-07-22T13:44:10.048Z,46.9
2017-07-22T13:45:11.852Z,47.2
2017-07-22T13:46:13.655Z,47.2
2017-07-22T13:47:15.446Z,47.1
2017-07-22T13:48:17.250Z,47.1
2017-07-22T13:49:18.724Z,47.2
2017-07-22T13:50:20.193Z,47